Time;durP1;ratioP1;P1;durP2;ratioP2;P2;SDS_P1;SDS_P2;PMS_P1;PMS_P2;Temp;Humidity;BMP_temperature;BMP_pressure;BME280_temperature;BME280_humidity;BME280_pressure;Samples;Min_cycle;Max_cycle;Signal;HPM_P1;HPM_P2
2021/12/25 00:00:57;;;;;;;1.65;0.93;;;6.50;46.60;;;;;;5096087;28;20198;-49
2021/12/25 00:03:25;;;;;;;1.25;0.60;;;6.40;46.30;;;;;;5095930;28;20169;-48
2021/12/25 00:05:53;;;;;;;2.35;1.20;;;6.40;46.40;;;;;;5095869;28;20190;-48
2021/12/25 00:08:23;;;;;;;1.70;0.95;;;6.40;46.30;;;;;;5095234;28;20604;-48
2021/12/25 00:10:51;;;;;;;1.40;0.57;;;6.40;46.60;;;;;;5095175;28;20164;-49
2021/12/25 00:13:19;;;;;;;1.30;0.77;;;6.40;46.50;;;;;;5095938;28;20617;-48
2021/12/25 00:15:48;;;;;;;2.08;1.38;;;6.40;46.40;;;;;;5078351;28;20172;-48
2021/12/25 00:18:16;;;;;;;1.35;0.70;;;6.40;46.60;;;;;;5078194;28;20171;-48
2021/12/25 00:20:43;;;;;;;1.08;0.40;;;6.40;46.60;;;;;;5095752;28;20187;-50
2021/12/25 00:23:11;;;;;;;2.45;1.23;;;6.40;46.30;;;;;;5095583;28;20614;-48
2021/12/25 00:25:44;;;;;;;1.10;0.63;;;6.40;46.40;;;;;;5094839;28;20168;-49
2021/12/25 00:31:10;;;;;;;4.43;0.77;;;6.40;46.60;;;;;;5095760;28;20216;-48
2021/12/25 00:36:14;;;;;;;1.88;0.75;;;6.30;46.50;;;;;;5095375;28;20608;-48
2021/12/25 00:38:43;;;;;;;1.92;1.20;;;6.30;46.60;;;;;;5095240;28;20208;-48
2021/12/25 00:41:11;;;;;;;1.60;1.50;;;6.30;46.80;;;;;;5095379;28;20184;-48
2021/12/25 00:43:39;;;;;;;2.65;1.67;;;6.30;46.70;;;;;;5094604;28;20160;-48
2021/12/25 00:46:06;;;;;;;2.75;0.70;;;6.30;46.60;;;;;;5095228;28;20474;-48
2021/12/25 00:48:33;;;;;;;1.88;1.17;;;6.30;46.50;;;;;;5095092;28;20505;-49
2021/12/25 00:51:01;;;;;;;1.45;0.73;;;6.30;46.60;;;;;;5094300;28;20168;-49
2021/12/25 00:53:29;;;;;;;1.00;0.40;;;6.30;46.60;;;;;;5095597;28;20164;-50
2021/12/25 00:55:56;;;;;;;1.25;0.52;;;6.30;46.60;;;;;;5094232;28;20255;-49
2021/12/25 00:58:24;;;;;;;5.88;2.53;;;6.30;46.50;;;;;;5094393;28;20175;-49
2021/12/25 01:00:52;;;;;;;4.80;1.65;;;6.30;46.60;;;;;;5094153;28;20686;-50
2021/12/25 01:03:19;;;;;;;1.33;0.55;;;6.30;46.50;;;;;;5095390;28;20156;-49
2021/12/25 01:05:47;;;;;;;1.20;0.63;;;6.20;46.30;;;;;;5094285;28;20192;-48
2021/12/25 01:08:14;;;;;;;1.23;0.82;;;6.20;46.30;;;;;;5095438;28;20160;-49
2021/12/25 01:10:42;;;;;;;2.05;0.93;;;6.20;46.30;;;;;;5095155;28;20176;-50
2021/12/25 01:13:14;;;;;;;1.00;0.30;;;6.20;46.20;;;;;;5094924;28;20171;-48
2021/12/25 01:15:59;;;;;;;1.10;0.40;;;6.20;46.30;;;;;;5062054;28;20593;-48
2021/12/25 01:18:57;;;;;;;1.30;0.80;;;6.10;46.30;;;;;;5094190;28;20182;-48
2021/12/25 01:21:38;;;;;;;1.10;0.40;;;6.10;46.30;;;;;;5094491;28;20249;-49
2021/12/25 01:37:44;;;;;;;1.17;0.47;;;6.00;46.50;;;;;;5094253;28;20190;-48
2021/12/25 01:40:26;;;;;;;1.00;0.30;;;6.00;46.50;;;;;;5093468;28;20220;-48
2021/12/25 01:48:21;;;;;;;1.10;0.40;;;5.90;46.50;;;;;;5099064;28;20605;-48
2021/12/25 01:50:49;;;;;;;1.10;0.57;;;5.90;46.50;;;;;;5098756;28;20309;-48
2021/12/25 01:53:17;;;;;;;1.10;0.45;;;5.80;46.40;;;;;;5098604;28;20172;-49
2021/12/25 01:55:45;;;;;;;1.40;0.55;;;5.80;46.30;;;;;;5097608;28;20174;-48
2021/12/25 01:58:12;;;;;;;1.73;0.77;;;5.80;46.50;;;;;;5098561;28;20164;-48
2021/12/25 02:00:52;;;;;;;1.70;0.50;;;5.80;46.30;;;;;;5098283;28;20274;-48
2021/12/25 02:03:22;;;;;;;1.00;0.40;;;5.70;46.50;;;;;;5097735;28;20219;-48
2021/12/25 02:05:49;;;;;;;1.70;0.50;;;5.70;46.60;;;;;;5098362;28;20152;-48
2021/12/25 02:08:17;;;;;;;1.10;0.50;;;5.70;46.60;;;;;;5097454;28;20175;-48
2021/12/25 02:10:45;;;;;;;1.00;0.30;;;5.70;46.60;;;;;;5098313;28;20611;-50
2021/12/25 02:13:14;;;;;;;1.10;0.57;;;5.70;45.80;;;;;;5098322;28;20233;-50
2021/12/25 02:15:45;;;;;;;1.00;0.30;;;5.60;45.50;;;;;;5098048;28;20156;-48
2021/12/25 02:18:25;;;;;;;3.75;1.50;;;5.60;45.10;;;;;;5097056;28;20253;-48
2021/12/25 02:21:16;;;;;;;1.00;0.30;;;5.40;44.90;;;;;;5082810;28;20222;-49
2021/12/25 02:23:45;;;;;;;1.00;0.30;;;5.30;44.70;;;;;;5097487;28;20164;-49
2021/12/25 02:26:12;;;;;;;4.03;0.40;;;5.20;45.10;;;;;;5098058;28;20155;-48
2021/12/25 02:28:40;;;;;;;1.60;0.80;;;5.20;45.30;;;;;;5097869;28;20229;-48
2021/12/25 02:31:11;;;;;;;1.00;0.30;;;5.10;44.80;;;;;;5079942;28;20168;-48
2021/12/25 02:33:40;;;;;;;1.00;0.30;;;5.00;44.10;;;;;;5080582;28;20570;-48
2021/12/25 02:36:09;;;;;;;0.90;0.30;;;4.90;44.20;;;;;;5097905;28;20184;-49
2021/12/25 02:38:37;;;;;;;1.10;0.50;;;4.90;44.50;;;;;;5096441;28;20643;-49
2021/12/25 02:41:05;;;;;;;0.90;0.20;;;4.80;44.40;;;;;;5080294;28;20249;-48
2021/12/25 02:43:33;;;;;;;1.00;0.40;;;4.80;44.60;;;;;;5096949;28;20217;-48
2021/12/25 02:46:05;;;;;;;0.90;0.30;;;4.70;44.10;;;;;;5080231;28;20171;-48
2021/12/25 02:48:37;;;;;;;1.00;0.35;;;4.60;44.00;;;;;;5096753;28;20176;-49
2021/12/25 02:51:05;;;;;;;1.00;0.30;;;4.60;44.20;;;;;;5096643;28;20211;-48
2021/12/25 02:53:32;;;;;;;1.00;0.40;;;4.60;44.00;;;;;;5096475;28;20168;-49
2021/12/25 02:56:00;;;;;;;1.20;0.50;;;4.50;44.20;;;;;;5096614;28;20175;-48
2021/12/25 02:58:27;;;;;;;1.00;0.30;;;4.50;44.10;;;;;;5095289;28;20225;-48
2021/12/25 03:01:04;;;;;;;1.05;0.50;;;4.50;44.50;;;;;;5097091;28;20573;-48
2021/12/25 03:03:31;;;;;;;1.00;0.30;;;4.40;44.50;;;;;;5097175;28;20489;-48
2021/12/25 03:06:01;;;;;;;1.40;0.60;;;4.40;44.40;;;;;;5096484;28;20160;-48
2021/12/25 03:08:28;;;;;;;0.90;0.20;;;4.40;44.10;;;;;;5096273;28;20593;-48
2021/12/25 03:10:56;;;;;;;1.17;0.52;;;4.40;45.30;;;;;;5097097;28;20252;-48
2021/12/25 03:13:35;;;;;;;0.90;0.30;;;4.40;44.30;;;;;;5096279;28;20164;-48
2021/12/25 03:16:08;;;;;;;1.25;0.65;;;4.40;44.50;;;;;;5097154;28;20168;-49
2021/12/25 03:18:43;;;;;;;0.93;0.30;;;4.40;44.60;;;;;;5096918;28;20164;-48
2021/12/25 03:21:11;;;;;;;0.98;0.30;;;4.40;44.30;;;;;;5096772;28;20198;-49
2021/12/25 03:23:41;;;;;;;1.00;0.30;;;4.40;44.00;;;;;;5096043;28;20166;-48
2021/12/25 03:26:09;;;;;;;5.60;0.93;;;4.40;43.60;;;;;;5079250;28;20198;-48
2021/12/25 03:28:41;;;;;;;1.00;0.30;;;4.40;43.90;;;;;;5096641;28;20160;-48
2021/12/25 03:31:16;;;;;;;1.20;0.52;;;4.20;42.70;;;;;;5096510;28;20586;-48
2021/12/25 03:33:48;;;;;;;1.30;0.43;;;4.10;42.00;;;;;;5080134;28;20171;-48
2021/12/25 03:36:15;;;;;;;1.00;0.30;;;4.00;42.80;;;;;;5096712;28;20251;-49
2021/12/25 03:38:45;;;;;;;1.92;0.60;;;3.90;42.60;;;;;;5095781;28;20293;-48
2021/12/25 03:41:12;;;;;;;1.17;0.77;;;3.90;42.70;;;;;;5095783;28;20498;-48
2021/12/25 03:43:42;;;;;;;1.73;0.75;;;3.90;43.00;;;;;;5095775;28;20171;-48
2021/12/25 03:46:11;;;;;;;1.33;0.75;;;3.90;43.00;;;;;;5096709;28;20164;-48
2021/12/25 03:59:36;;;;;;;1.00;0.30;;;3.80;42.80;;;;;;5096377;28;20163;-49
2021/12/25 04:02:13;;;;;;;1.20;0.50;;;3.80;42.80;;;;;;5096183;28;20686;-47
2021/12/25 04:04:45;;;;;;;2.50;0.93;;;3.80;43.00;;;;;;5095088;28;20166;-48
2021/12/25 04:10:15;;;;;;;1.38;0.60;;;3.90;43.30;;;;;;5042115;28;20618;-48
2021/12/25 04:12:42;;;;;;;1.48;0.60;;;3.90;43.30;;;;;;5087394;28;20183;-48
2021/12/25 04:15:09;;;;;;;4.93;2.38;;;4.00;43.40;;;;;;5095780;28;20164;-48
2021/12/25 04:17:37;;;;;;;1.33;0.68;;;4.00;43.30;;;;;;5078344;28;20173;-48
2021/12/25 04:20:05;;;;;;;1.23;0.75;;;4.00;43.00;;;;;;5095587;28;20179;-48
2021/12/25 04:22:43;;;;;;;1.25;0.70;;;4.00;43.10;;;;;;5094718;28;20521;-48
2021/12/25 04:25:11;;;;;;;2.40;0.60;;;4.00;43.20;;;;;;5094768;28;20168;-48
2021/12/25 04:27:39;;;;;;;2.22;0.60;;;4.00;43.10;;;;;;5094676;28;20175;-48
2021/12/25 04:30:21;;;;;;;3.83;1.05;;;4.00;43.10;;;;;;5077719;28;20164;-48
2021/12/25 04:33:28;;;;;;;4.03;1.10;;;4.00;42.70;;;;;;5094637;28;20167;-49
2021/12/25 05:03:36;;;;;;;1.20;0.40;;;3.90;43.00;;;;;;5095015;28;20216;-48
2021/12/25 05:06:03;;;;;;;1.40;0.90;;;4.00;43.00;;;;;;5094834;28;20172;-48
2021/12/25 05:08:31;;;;;;;1.00;0.45;;;4.00;42.50;;;;;;5077499;28;20163;-48
2021/12/25 05:10:58;;;;;;;1.10;0.43;;;4.00;42.40;;;;;;5094901;28;20180;-48
2021/12/25 05:13:26;;;;;;;1.48;0.43;;;3.90;42.30;;;;;;5094837;28;20183;-49
2021/12/25 05:15:53;;;;;;;1.00;0.38;;;3.90;42.20;;;;;;5094353;28;20198;-49
2021/12/25 05:18:21;;;;;;;0.90;0.20;;;3.90;42.50;;;;;;5077463;28;20168;-49
2021/12/25 05:20:49;;;;;;;1.85;0.60;;;3.80;42.20;;;;;;5096425;28;20191;-48
2021/12/25 05:23:16;;;;;;;1.60;0.90;;;3.80;42.10;;;;;;5099290;28;20235;-47
2021/12/25 05:25:43;;;;;;;1.98;0.80;;;3.80;42.30;;;;;;5099512;28;20669;-48
2021/12/25 05:28:12;;;;;;;1.20;0.57;;;3.80;42.40;;;;;;5098313;28;20164;-48
2021/12/25 05:30:40;;;;;;;2.00;0.82;;;3.80;42.60;;;;;;5098930;28;20619;-48
2021/12/25 05:33:08;;;;;;;1.10;0.35;;;3.80;42.60;;;;;;5081747;28;20187;-47
2021/12/25 05:35:35;;;;;;;1.00;0.30;;;3.90;42.30;;;;;;5098859;28;20327;-47
2021/12/25 05:38:03;;;;;;;1.40;0.85;;;3.80;42.10;;;;;;5098093;28;20164;-48
2021/12/25 05:40:30;;;;;;;1.70;0.88;;;3.80;42.40;;;;;;5098435;28;20222;-49
2021/12/25 05:42:57;;;;;;;1.70;1.25;;;3.80;42.60;;;;;;5098699;28;20175;-49
2021/12/25 05:45:24;;;;;;;1.30;0.57;;;3.80;42.50;;;;;;5098853;28;20251;-48
2021/12/25 05:47:52;;;;;;;1.40;1.05;;;3.70;42.60;;;;;;5098773;28;20168;-49
2021/12/25 05:50:20;;;;;;;1.20;0.77;;;3.70;42.80;;;;;;5098588;28;20160;-48
2021/12/25 05:52:47;;;;;;;1.85;0.85;;;3.80;42.60;;;;;;5098726;28;20163;-48
2021/12/25 05:55:15;;;;;;;1.00;0.30;;;3.80;42.60;;;;;;5098433;28;20170;-49
2021/12/25 05:57:42;;;;;;;1.02;0.52;;;3.80;42.50;;;;;;5098445;28;20243;-49
2021/12/25 06:00:11;;;;;;;1.40;0.57;;;3.80;42.60;;;;;;5098392;28;20160;-48
2021/12/25 06:02:39;;;;;;;3.75;0.77;;;3.80;42.50;;;;;;5097397;28;20637;-48
2021/12/25 06:05:07;;;;;;;1.20;0.50;;;3.80;42.30;;;;;;5098463;28;20160;-48
2021/12/25 06:07:35;;;;;;;1.35;0.88;;;3.70;42.30;;;;;;5098482;28;20221;-49
2021/12/25 06:10:06;;;;;;;1.75;0.73;;;3.70;42.30;;;;;;5097357;28;20173;-48
2021/12/25 06:12:34;;;;;;;1.20;0.70;;;3.70;42.40;;;;;;5098175;28;20512;-48
2021/12/25 06:15:02;;;;;;;1.00;0.30;;;3.70;42.50;;;;;;5097415;28;20164;-48
2021/12/25 06:17:29;;;;;;;1.75;1.20;;;3.70;42.40;;;;;;5098026;28;20224;-49
2021/12/25 06:19:57;;;;;;;1.55;0.47;;;3.70;42.10;;;;;;5080513;28;20188;-48
2021/12/25 06:22:24;;;;;;;1.35;0.77;;;3.60;42.20;;;;;;5098368;28;20188;-47
2021/12/25 06:24:51;;;;;;;3.25;0.70;;;3.60;42.30;;;;;;5097054;28;20190;-48
2021/12/25 06:27:20;;;;;;;1.27;0.63;;;3.60;42.50;;;;;;5080360;28;20195;-48
2021/12/25 06:29:48;;;;;;;1.05;0.40;;;3.60;42.60;;;;;;5097905;28;20167;-49
2021/12/25 06:32:15;;;;;;;1.55;0.93;;;3.60;42.50;;;;;;5096829;28;20168;-48
2021/12/25 06:34:44;;;;;;;1.70;0.93;;;3.60;42.60;;;;;;5097954;28;20271;-48
2021/12/25 06:37:11;;;;;;;1.00;0.40;;;3.60;42.70;;;;;;5097658;28;20596;-48
2021/12/25 06:39:41;;;;;;;1.98;1.45;;;3.60;42.50;;;;;;5097592;28;20249;-48
2021/12/25 06:42:09;;;;;;;1.65;1.25;;;3.60;42.70;;;;;;5096811;28;20290;-49
2021/12/25 06:44:37;;;;;;;1.73;1.00;;;3.70;42.60;;;;;;5097981;28;20225;-48
2021/12/25 06:47:05;;;;;;;1.77;1.08;;;3.60;42.50;;;;;;5096606;28;20172;-49
2021/12/25 06:49:32;;;;;;;0.93;0.30;;;3.60;42.60;;;;;;5097393;28;20167;-48
2021/12/25 06:52:00;;;;;;;1.15;0.63;;;3.60;42.90;;;;;;5079855;28;20179;-48
2021/12/25 06:54:27;;;;;;;1.40;0.77;;;3.70;42.90;;;;;;5096511;28;20164;-49
2021/12/25 06:56:55;;;;;;;1.10;0.40;;;3.70;42.90;;;;;;5096838;28;20658;-48
2021/12/25 06:59:23;;;;;;;1.10;0.50;;;3.60;42.20;;;;;;5096376;28;20516;-48
2021/12/25 07:01:51;;;;;;;1.10;0.63;;;3.60;42.00;;;;;;5097140;28;20235;-48
2021/12/25 07:04:18;;;;;;;1.85;0.73;;;3.50;41.90;;;;;;5079840;28;20167;-48
2021/12/25 07:06:46;;;;;;;3.60;1.30;;;3.50;42.30;;;;;;5097435;28;20584;-48
2021/12/25 07:09:13;;;;;;;1.00;0.45;;;3.50;42.40;;;;;;5097193;28;20588;-48
2021/12/25 07:11:42;;;;;;;3.38;1.20;;;3.50;42.30;;;;;;5097110;28;20202;-49
2021/12/25 07:14:11;;;;;;;2.35;1.05;;;3.40;42.10;;;;;;5079916;28;20159;-48
2021/12/25 07:16:39;;;;;;;1.15;0.60;;;3.50;42.50;;;;;;5095969;28;20207;-47
2021/12/25 07:19:07;;;;;;;1.10;0.45;;;3.50;42.60;;;;;;5097103;28;20179;-48
2021/12/25 07:21:35;;;;;;;1.35;0.90;;;3.50;42.60;;;;;;5097078;28;20231;-48
2021/12/25 07:24:03;;;;;;;1.30;0.70;;;3.50;42.60;;;;;;5096798;28;20163;-49
2021/12/25 07:26:30;;;;;;;1.30;0.47;;;3.50;42.30;;;;;;5096732;28;20216;-48
2021/12/25 07:28:58;;;;;;;1.00;0.50;;;3.50;42.30;;;;;;5095850;28;20166;-48
2021/12/25 07:31:26;;;;;;;7.07;1.00;;;3.50;42.10;;;;;;5095695;28;20608;-48
2021/12/25 07:33:53;;;;;;;1.23;0.68;;;3.50;41.90;;;;;;5095696;28;20164;-48
2021/12/25 07:36:20;;;;;;;0.95;0.30;;;3.40;41.30;;;;;;5096897;28;20175;-48
2021/12/25 07:38:48;;;;;;;1.25;0.75;;;3.30;41.00;;;;;;5095404;28;20210;-49
2021/12/25 07:41:15;;;;;;;1.10;0.50;;;3.30;41.10;;;;;;5096610;28;20640;-48
2021/12/25 07:43:42;;;;;;;2.33;0.75;;;3.30;41.60;;;;;;5095004;28;20597;-49
2021/12/25 07:46:10;;;;;;;1.00;0.30;;;3.30;41.60;;;;;;5096292;28;20171;-49
2021/12/25 07:48:38;;;;;;;1.00;0.30;;;3.30;41.60;;;;;;5096358;28;20233;-48
2021/12/25 07:51:05;;;;;;;1.10;0.30;;;3.20;40.60;;;;;;5096334;28;20546;-47
2021/12/25 07:53:33;;;;;;;1.58;0.93;;;3.20;41.10;;;;;;5095415;28;20604;-49
2021/12/25 07:56:01;;;;;;;1.10;0.68;;;3.20;40.90;;;;;;5095466;28;20172;-49
2021/12/25 07:58:28;;;;;;;1.33;0.80;;;3.20;41.00;;;;;;5096076;28;20254;-49
2021/12/25 08:00:57;;;;;;;0.90;0.30;;;3.20;41.20;;;;;;5095934;28;20245;-48
2021/12/25 08:03:24;;;;;;;0.90;0.30;;;3.30;41.10;;;;;;5095247;28;20174;-48
2021/12/25 08:05:52;;;;;;;1.00;0.40;;;3.30;41.50;;;;;;5095252;28;20164;-48
2021/12/25 08:08:20;;;;;;;0.95;0.30;;;3.30;41.00;;;;;;5095911;28;20167;-48
2021/12/25 08:10:48;;;;;;;0.90;0.20;;;3.30;41.40;;;;;;5095794;28;20267;-48
2021/12/25 08:13:16;;;;;;;0.90;0.20;;;3.30;41.50;;;;;;5095990;28;20250;-48
2021/12/25 08:15:44;;;;;;;3.80;0.63;;;3.40;42.20;;;;;;5095983;28;20636;-48
2021/12/25 08:18:11;;;;;;;2.10;0.70;;;3.40;41.20;;;;;;5095702;28;20170;-49
2021/12/25 08:20:39;;;;;;;0.95;0.30;;;3.40;40.90;;;;;;5095708;28;20173;-50
2021/12/25 08:23:07;;;;;;;1.00;0.40;;;3.40;41.00;;;;;;5095648;28;20160;-48
2021/12/25 08:25:35;;;;;;;0.90;0.20;;;3.30;40.80;;;;;;5095848;28;20195;-49
2021/12/25 08:28:02;;;;;;;1.10;0.50;;;3.30;41.20;;;;;;5094608;28;20163;-49
2021/12/25 08:30:30;;;;;;;0.95;0.30;;;3.30;40.60;;;;;;5094976;28;20539;-48
2021/12/25 08:32:58;;;;;;;1.15;0.40;;;3.30;41.20;;;;;;5094676;28;20232;-48
2021/12/25 08:35:28;;;;;;;0.98;0.40;;;3.40;40.80;;;;;;5077977;28;20519;-48
2021/12/25 08:37:55;;;;;;;0.90;0.20;;;3.30;40.60;;;;;;5094609;28;20159;-48
2021/12/25 08:40:24;;;;;;;1.40;0.82;;;3.30;40.10;;;;;;5094449;28;20210;-48
2021/12/25 08:42:57;;;;;;;0.90;0.30;;;3.30;40.50;;;;;;5094449;28;20168;-48
2021/12/25 08:45:59;;;;;;;1.00;0.30;;;3.30;40.60;;;;;;5079294;28;20179;-48
2021/12/25 08:48:27;;;;;;;1.00;0.30;;;3.30;40.20;;;;;;5081824;28;20197;-49
2021/12/25 08:50:57;;;;;;;1.10;0.50;;;3.30;39.90;;;;;;5094481;28;20170;-48
2021/12/25 08:53:26;;;;;;;0.90;0.20;;;3.20;39.50;;;;;;5095402;28;20170;-49
2021/12/25 08:55:57;;;;;;;1.00;0.40;;;3.10;39.40;;;;;;5094346;28;20164;-48
2021/12/25 08:58:27;;;;;;;1.27;0.52;;;3.10;39.70;;;;;;5095121;28;20226;-48
2021/12/25 09:00:57;;;;;;;1.00;0.38;;;3.10;40.60;;;;;;5094069;28;20202;-49
2021/12/25 09:03:26;;;;;;;1.08;0.55;;;3.10;39.90;;;;;;5095028;28;20497;-49
2021/12/25 09:05:56;;;;;;;1.00;0.40;;;3.10;39.60;;;;;;5094102;28;20491;-47
2021/12/25 09:08:24;;;;;;;1.00;0.40;;;3.10;39.00;;;;;;5077922;28;20594;-48
2021/12/25 09:10:52;;;;;;;1.40;0.63;;;3.10;39.60;;;;;;5095060;28;20171;-48
2021/12/25 09:13:20;;;;;;;2.83;0.50;;;3.10;40.60;;;;;;5094901;28;20171;-49
2021/12/25 09:15:47;;;;;;;1.80;1.00;;;3.10;40.60;;;;;;5094271;28;20234;-48
2021/12/25 09:18:15;;;;;;;1.00;0.47;;;3.20;40.20;;;;;;5095313;28;20193;-48
2021/12/25 09:20:42;;;;;;;0.95;0.30;;;3.30;40.60;;;;;;5095396;28;20568;-48
2021/12/25 09:23:10;;;;;;;1.05;0.52;;;3.30;41.00;;;;;;5094056;28;20221;-47
2021/12/25 09:25:38;;;;;;;1.70;0.85;;;3.50;40.90;;;;;;5094935;28;20169;-48
2021/12/25 09:28:05;;;;;;;1.10;0.40;;;3.50;40.20;;;;;;5094060;28;20167;-48
2021/12/25 09:30:33;;;;;;;1.10;0.40;;;3.60;40.60;;;;;;5094954;28;20167;-49
2021/12/25 09:33:01;;;;;;;1.20;0.50;;;3.70;40.80;;;;;;5094724;28;20170;-49
2021/12/25 09:35:29;;;;;;;0.90;0.30;;;3.70;40.50;;;;;;5094778;28;20166;-48
2021/12/25 09:37:56;;;;;;;0.90;0.20;;;3.80;40.30;;;;;;5094812;28;20166;-49
2021/12/25 09:40:23;;;;;;;1.00;0.40;;;3.90;40.00;;;;;;5094578;28;20199;-48
2021/12/25 09:42:51;;;;;;;0.98;0.30;;;3.90;40.10;;;;;;5077106;28;20203;-48
2021/12/25 09:45:18;;;;;;;1.30;0.73;;;3.90;40.40;;;;;;5093954;28;20469;-47
2021/12/25 09:47:46;;;;;;;1.00;0.30;;;3.90;40.60;;;;;;5093697;28;20217;-49
2021/12/25 09:50:13;;;;;;;1.00;0.57;;;3.90;40.50;;;;;;5094913;28;20162;-49
2021/12/25 09:52:43;;;;;;;1.00;0.40;;;4.00;40.60;;;;;;5094455;28;20477;-49
2021/12/25 09:55:11;;;;;;;2.47;1.25;;;4.10;40.50;;;;;;5094527;28;20206;-49
2021/12/25 09:57:39;;;;;;;30.73;15.88;;;4.00;40.40;;;;;;5077331;28;20176;-48
2021/12/25 10:00:20;;;;;;;8.88;5.78;;;4.00;40.40;;;;;;5076815;28;20172;-48
2021/12/25 10:02:52;;;;;;;29.02;13.05;;;4.00;40.40;;;;;;5094612;28;20223;-48
2021/12/25 10:05:41;;;;;;;20.92;11.15;;;4.00;40.30;;;;;;5077380;28;20231;-48
2021/12/25 10:08:14;;;;;;;5.47;4.97;;;4.00;40.30;;;;;;5097069;28;20175;-47
2021/12/25 10:10:54;;;;;;;1.88;1.40;;;4.00;40.60;;;;;;5098409;28;20187;-47
2021/12/25 10:13:24;;;;;;;2.10;1.35;;;4.00;40.40;;;;;;5097261;28;20512;-49
2021/12/25 10:15:54;;;;;;;1.00;0.40;;;4.10;40.70;;;;;;5098307;28;20167;-48
2021/12/25 10:18:31;;;;;;;1.00;0.35;;;4.10;40.70;;;;;;5097990;28;20179;-48
2021/12/25 10:21:27;;;;;;;1.13;0.50;;;4.10;39.90;;;;;;5097040;28;20491;-49
2021/12/25 10:24:17;;;;;;;1.00;0.50;;;4.20;40.10;;;;;;5098044;28;20167;-48
2021/12/25 10:26:47;;;;;;;4.10;1.45;;;4.20;40.00;;;;;;5097832;28;20184;-48
2021/12/25 10:29:27;;;;;;;1.08;0.50;;;4.10;40.00;;;;;;5097188;28;20172;-48
2021/12/25 10:31:59;;;;;;;1.10;0.60;;;4.20;40.40;;;;;;5098099;28;20202;-48
2021/12/25 10:34:30;;;;;;;1.00;0.30;;;4.20;40.40;;;;;;5080567;28;20163;-48
2021/12/25 10:37:14;;;;;;;1.23;0.47;;;4.30;40.50;;;;;;5097798;28;20178;-49
2021/12/25 10:39:42;;;;;;;1.73;0.95;;;4.30;40.50;;;;;;5097396;28;20269;-48
2021/12/25 10:42:16;;;;;;;1.42;0.40;;;4.40;40.40;;;;;;5080371;28;20198;-48
2021/12/25 10:44:58;;;;;;;1.00;0.40;;;4.40;40.40;;;;;;5096688;28;20167;-48
2021/12/25 10:47:27;;;;;;;0.98;0.32;;;4.40;40.20;;;;;;5096746;28;20512;-47
2021/12/25 10:49:58;;;;;;;1.30;0.60;;;4.40;40.30;;;;;;5097446;28;20190;-48
2021/12/25 10:52:42;;;;;;;1.00;0.40;;;4.40;40.20;;;;;;5097656;28;20164;-48
2021/12/25 10:55:18;;;;;;;1.08;0.57;;;4.40;40.20;;;;;;5096377;28;20188;-48
2021/12/25 10:57:50;;;;;;;2.55;0.95;;;4.40;40.50;;;;;;5097263;28;20167;-48
2021/12/25 11:00:29;;;;;;;3.15;1.50;;;4.40;40.50;;;;;;5096609;28;20256;-48
2021/12/25 11:03:09;;;;;;;1.67;0.82;;;4.40;40.20;;;;;;5097791;28;20240;-49
2021/12/25 11:05:39;;;;;;;1.67;1.45;;;4.50;40.40;;;;;;5096211;28;20164;-48
2021/12/25 11:08:18;;;;;;;1.27;0.77;;;4.50;40.40;;;;;;5096403;28;20190;-48
2021/12/25 11:10:56;;;;;;;1.30;0.80;;;4.50;40.60;;;;;;5097076;28;20198;-49
2021/12/25 11:13:38;;;;;;;1.80;0.65;;;4.50;40.50;;;;;;5096440;28;20152;-49
2021/12/25 11:16:15;;;;;;;1.35;1.05;;;4.50;40.30;;;;;;5097058;28;20184;-49
2021/12/25 11:19:09;;;;;;;1.00;0.40;;;4.50;40.20;;;;;;5096143;28;20156;-48
2021/12/25 11:21:57;;;;;;;1.27;0.70;;;4.60;39.90;;;;;;5095730;28;20234;-48
2021/12/25 11:24:26;;;;;;;1.10;0.32;;;4.50;40.10;;;;;;5096804;28;20153;-47
2021/12/25 11:27:06;;;;;;;1.10;0.80;;;4.50;39.90;;;;;;5096911;28;20160;-48
2021/12/25 11:29:36;;;;;;;1.10;0.60;;;4.40;40.20;;;;;;5096618;28;20168;-49
2021/12/25 11:32:05;;;;;;;4.38;0.60;;;4.50;40.00;;;;;;5095668;28;20161;-47
2021/12/25 11:34:33;;;;;;;5.13;0.70;;;4.50;40.00;;;;;;5096655;28;20217;-49
2021/12/25 11:37:01;;;;;;;1.40;0.70;;;4.50;39.50;;;;;;5095763;28;20171;-48
2021/12/25 11:39:30;;;;;;;1.60;1.15;;;4.40;39.80;;;;;;5095262;28;20603;-48
2021/12/25 11:42:05;;;;;;;1.63;1.00;;;4.40;39.50;;;;;;5096546;28;20192;-49
2021/12/25 11:44:51;;;;;;;1.30;0.68;;;4.30;39.30;;;;;;5096573;28;20515;-49
2021/12/25 11:47:51;;;;;;;1.00;0.40;;;4.30;39.40;;;;;;5079579;28;20482;-48
2021/12/25 11:50:23;;;;;;;1.00;0.47;;;4.20;39.30;;;;;;5096071;28;20539;-48
2021/12/25 11:53:23;;;;;;;0.90;0.30;;;4.20;39.60;;;;;;5096097;28;20168;-48
2021/12/25 11:58:43;;;;;;;1.00;0.50;;;4.00;39.60;;;;;;5079401;28;20546;-49
2021/12/25 12:01:27;;;;;;;2.55;0.65;;;4.00;39.60;;;;;;5095378;28;20203;-48
2021/12/25 12:04:11;;;;;;;1.65;0.85;;;4.00;40.00;;;;;;5096346;28;20492;-48
2021/12/25 12:06:45;;;;;;;1.77;1.15;;;4.00;39.90;;;;;;5095345;28;20170;-48
2021/12/25 12:09:20;;;;;;;1.00;0.30;;;4.10;39.00;;;;;;5095087;28;20187;-48
2021/12/25 12:11:51;;;;;;;1.90;0.95;;;4.10;39.30;;;;;;5095784;28;20159;-48
2021/12/25 12:14:37;;;;;;;1.13;0.52;;;4.10;39.50;;;;;;5095846;28;20629;-48
2021/12/25 12:17:08;;;;;;;1.30;0.70;;;4.10;39.60;;;;;;5094948;28;20237;-49
2021/12/25 12:19:37;;;;;;;1.60;0.77;;;4.20;39.40;;;;;;5094892;28;20182;-48
2021/12/25 12:22:23;;;;;;;1.10;0.35;;;4.10;39.20;;;;;;5095750;28;20200;-49
2021/12/25 12:28:02;;;;;;;1.00;0.40;;;4.20;39.10;;;;;;5095932;28;20160;-48
2021/12/25 12:30:33;;;;;;;1.20;0.60;;;4.10;39.40;;;;;;5094736;28;20202;-48
2021/12/25 12:33:25;;;;;;;1.50;1.00;;;4.10;39.30;;;;;;5095477;28;20166;-49
2021/12/25 12:35:54;;;;;;;1.38;0.80;;;4.20;39.50;;;;;;5084574;28;20178;-48
2021/12/25 12:38:48;;;;;;;1.23;0.60;;;4.30;39.30;;;;;;5095165;28;20196;-49
2021/12/25 12:41:39;;;;;;;2.20;0.63;;;4.30;38.90;;;;;;5094775;28;20203;-47
2021/12/25 12:44:14;;;;;;;1.80;0.55;;;4.30;39.20;;;;;;5078372;28;20243;-49
2021/12/25 12:46:52;;;;;;;1.30;0.85;;;4.30;39.50;;;;;;5094719;28;20155;-48
2021/12/25 12:49:32;;;;;;;1.20;0.60;;;4.40;39.30;;;;;;5094192;28;20540;-48
2021/12/25 12:52:28;;;;;;;1.00;0.55;;;4.40;39.20;;;;;;5095178;28;20245;-48
2021/12/25 12:55:11;;;;;;;2.85;1.35;;;4.50;39.10;;;;;;5095208;28;20164;-48
2021/12/25 12:57:45;;;;;;;2.45;1.73;;;4.50;39.00;;;;;;5095352;28;20171;-48
2021/12/25 13:00:22;;;;;;;1.73;0.77;;;4.40;38.90;;;;;;5094467;28;20156;-48
2021/12/25 13:02:56;;;;;;;5.00;1.20;;;4.40;39.10;;;;;;5095112;28;20321;-48
2021/12/25 13:05:31;;;;;;;2.95;0.73;;;4.40;39.10;;;;;;5095207;28;20239;-48
2021/12/25 13:08:01;;;;;;;1.40;1.05;;;4.40;39.10;;;;;;5078110;28;20224;-48
2021/12/25 13:13:18;;;;;;;2.15;1.75;;;4.40;38.70;;;;;;5094099;28;20489;-48
2021/12/25 13:15:49;;;;;;;1.10;0.70;;;4.40;38.80;;;;;;5094258;28;20298;-48
2021/12/25 13:18:26;;;;;;;1.20;0.60;;;4.30;38.80;;;;;;5094903;28;20163;-50
2021/12/25 13:20:54;;;;;;;4.57;1.55;;;4.30;38.40;;;;;;5093951;28;20159;-49
2021/12/25 13:23:28;;;;;;;1.83;0.95;;;4.20;38.30;;;;;;5093957;28;20174;-49
2021/12/25 13:26:00;;;;;;;1.48;1.15;;;4.10;38.60;;;;;;5094281;28;20486;-48
2021/12/25 13:28:31;;;;;;;2.97;1.40;;;4.10;38.50;;;;;;5093918;28;20163;-49
2021/12/25 13:31:03;;;;;;;1.80;0.73;;;4.10;38.60;;;;;;5094097;28;20596;-48
2021/12/25 13:33:34;;;;;;;1.60;0.85;;;4.10;38.60;;;;;;5094980;28;20177;-48
2021/12/25 13:36:10;;;;;;;1.40;1.00;;;4.70;39.40;;;;;;5094685;28;20190;-48
2021/12/25 13:38:56;;;;;;;1.42;0.90;;;4.20;38.40;;;;;;5077620;28;20159;-49
2021/12/25 13:41:45;;;;;;;3.47;0.88;;;4.40;38.40;;;;;;5094764;28;20199;-49
2021/12/25 13:44:18;;;;;;;1.10;0.63;;;4.40;38.20;;;;;;5081621;28;20166;-50
2021/12/25 13:47:05;;;;;;;2.88;1.05;;;4.30;38.20;;;;;;5081372;28;20466;-48
2021/12/25 13:49:35;;;;;;;1.10;0.50;;;4.30;38.60;;;;;;5098713;28;20616;-48
2021/12/25 13:52:09;;;;;;;1.73;0.75;;;4.10;37.60;;;;;;5098812;28;20165;-49
2021/12/25 13:54:40;;;;;;;1.00;0.47;;;4.00;37.90;;;;;;5097997;28;20255;-48
2021/12/25 13:57:10;;;;;;;1.33;0.50;;;3.80;36.50;;;;;;5098594;28;20211;-48
2021/12/25 13:59:39;;;;;;;1.10;0.55;;;3.70;37.40;;;;;;5097547;28;20171;-49
2021/12/25 14:02:09;;;;;;;1.20;0.63;;;3.60;37.70;;;;;;5097628;28;20233;-48
2021/12/25 14:04:39;;;;;;;1.48;0.70;;;3.50;38.30;;;;;;5098271;28;20170;-48
2021/12/25 14:07:09;;;;;;;1.58;0.50;;;3.50;38.40;;;;;;5097382;28;20232;-48
2021/12/25 14:09:36;;;;;;;1.20;0.70;;;3.50;38.40;;;;;;5097624;28;20175;-49
2021/12/25 14:12:05;;;;;;;1.25;0.60;;;3.40;38.30;;;;;;5080777;28;20172;-48
2021/12/25 14:14:33;;;;;;;3.95;1.20;;;3.40;38.30;;;;;;5097467;28;20164;-49
2021/12/25 14:17:02;;;;;;;1.02;0.50;;;3.40;38.50;;;;;;5097436;28;20235;-48
2021/12/25 14:19:31;;;;;;;3.65;3.22;;;3.30;38.60;;;;;;5080521;28;20213;-49
2021/12/25 14:22:05;;;;;;;10.20;4.35;;;3.30;38.60;;;;;;5080536;28;20621;-49
2021/12/25 14:24:49;;;;;;;4.30;3.20;;;3.20;38.60;;;;;;5098142;28;20202;-48
2021/12/25 14:27:22;;;;;;;13.23;8.20;;;3.10;38.60;;;;;;5097948;28;20217;-48
2021/12/25 14:29:50;;;;;;;6.80;4.15;;;3.10;38.70;;;;;;5080500;28;20169;-49
2021/12/25 14:32:23;;;;;;;2.13;1.85;;;3.00;38.70;;;;;;5096990;28;20635;-49
2021/12/25 14:34:50;;;;;;;1.17;0.85;;;2.90;38.70;;;;;;5097678;28;20593;-49